sensor_id;sensor_type;location;lat;lon;timestamp;pressure;altitude;pressure_sealevel;temperature;humidity
8253;BME280;61313;48.396;10.008;2023-09-19T00:02:02;95938.88;;;17.94;73.78
8253;BME280;61313;48.396;10.008;2023-09-19T00:04:32;95938.88;;;17.83;73.86
8253;BME280;61313;48.396;10.008;2023-09-19T00:06:58;95951.06;;;17.86;74.59
8253;BME280;61313;48.396;10.008;2023-09-19T00:09:23;95951.31;;;17.83;74.28
8253;BME280;61313;48.396;10.008;2023-09-19T00:11:51;95944.19;;;17.83;74.60
8253;BME280;61313;48.396;10.008;2023-09-19T00:14:17;95937.81;;;17.74;74.75
8253;BME280;61313;48.396;10.008;2023-09-19T00:16:42;95933.22;;;17.76;74.52
8253;BME280;61313;48.396;10.008;2023-09-19T00:19:07;95928.75;;;17.77;74.66
8253;BME280;61313;48.396;10.008;2023-09-19T00:21:34;95928.59;;;17.78;74.31
8253;BME280;61313;48.396;10.008;2023-09-19T00:24:00;95928.13;;;17.73;74.67
8253;BME280;61313;48.396;10.008;2023-09-19T00:26:26;95936.38;;;17.82;73.69
8253;BME280;61313;48.396;10.008;2023-09-19T00:28:55;95933.09;;;17.78;73.49
8253;BME280;61313;48.396;10.008;2023-09-19T00:31:22;95931.63;;;17.74;73.22
8253;BME280;61313;48.396;10.008;2023-09-19T00:33:50;95927.09;;;17.65;73.84
8253;BME280;61313;48.396;10.008;2023-09-19T00:36:16;95932.13;;;17.68;73.90
8253;BME280;61313;48.396;10.008;2023-09-19T00:38:43;95930.31;;;17.68;73.91
8253;BME280;61313;48.396;10.008;2023-09-19T00:41:10;95920.19;;;17.62;73.98
8253;BME280;61313;48.396;10.008;2023-09-19T00:43:38;95920.31;;;17.61;73.98
8253;BME280;61313;48.396;10.008;2023-09-19T00:46:05;95914.03;;;17.73;73.79
8253;BME280;61313;48.396;10.008;2023-09-19T00:48:31;95918.41;;;17.63;73.99
8253;BME280;61313;48.396;10.008;2023-09-19T00:51:02;95913.81;;;17.65;74.05
8253;BME280;61313;48.396;10.008;2023-09-19T00:53:30;95921.91;;;17.52;74.93
8253;BME280;61313;48.396;10.008;2023-09-19T00:55:56;95920.06;;;17.52;74.83
8253;BME280;61313;48.396;10.008;2023-09-19T00:58:22;95924.44;;;17.65;74.31
8253;BME280;61313;48.396;10.008;2023-09-19T01:00:50;95923.56;;;17.64;74.67
8253;BME280;61313;48.396;10.008;2023-09-19T01:03:17;95924.06;;;17.69;74.44
8253;BME280;61313;48.396;10.008;2023-09-19T01:05:43;95926.59;;;17.60;75.09
8253;BME280;61313;48.396;10.008;2023-09-19T01:08:09;95916.22;;;17.56;75.05
8253;BME280;61313;48.396;10.008;2023-09-19T01:10:43;95928.41;;;17.59;75.12
8253;BME280;61313;48.396;10.008;2023-09-19T01:16:09;95930.94;;;17.49;75.81
8253;BME280;61313;48.396;10.008;2023-09-19T01:24:42;95947.94;;;17.69;75.32
8253;BME280;61313;48.396;10.008;2023-09-19T01:27:56;95948.78;;;17.59;75.64
8253;BME280;61313;48.396;10.008;2023-09-19T01:30:20;95950.97;;;17.65;75.49
8253;BME280;61313;48.396;10.008;2023-09-19T01:32:50;95954.69;;;17.62;75.86
8253;BME280;61313;48.396;10.008;2023-09-19T01:35:17;95962.06;;;17.59;75.67
8253;BME280;61313;48.396;10.008;2023-09-19T01:37:44;95966.03;;;17.64;75.40
8253;BME280;61313;48.396;10.008;2023-09-19T01:40:12;95958.19;;;17.63;75.28
8253;BME280;61313;48.396;10.008;2023-09-19T01:48:49;95965.69;;;17.58;75.17
8253;BME280;61313;48.396;10.008;2023-09-19T01:54:18;95968.91;;;17.50;75.44
8253;BME280;61313;48.396;10.008;2023-09-19T01:56:53;95968.09;;;17.49;75.46
8253;BME280;61313;48.396;10.008;2023-09-19T01:59:30;95975.19;;;17.49;75.66
8253;BME280;61313;48.396;10.008;2023-09-19T02:01:57;95974.59;;;17.45;75.42
8253;BME280;61313;48.396;10.008;2023-09-19T02:04:23;95970.97;;;17.46;75.63
8253;BME280;61313;48.396;10.008;2023-09-19T02:06:48;95975.31;;;17.47;75.45
8253;BME280;61313;48.396;10.008;2023-09-19T02:09:14;95976.50;;;17.43;75.93
8253;BME280;61313;48.396;10.008;2023-09-19T02:11:40;95983.16;;;17.49;75.34
8253;BME280;61313;48.396;10.008;2023-09-19T02:14:07;95978.09;;;17.46;75.52
8253;BME280;61313;48.396;10.008;2023-09-19T02:16:34;95976.28;;;17.46;75.69
8253;BME280;61313;48.396;10.008;2023-09-19T02:18:59;95976.88;;;17.50;75.25
8253;BME280;61313;48.396;10.008;2023-09-19T02:21:25;95979.16;;;17.43;76.12
8253;BME280;61313;48.396;10.008;2023-09-19T02:23:55;95982.66;;;17.32;76.24
8253;BME280;61313;48.396;10.008;2023-09-19T02:26:20;95978.91;;;17.24;76.35
8253;BME280;61313;48.396;10.008;2023-09-19T02:28:45;95980.97;;;17.43;75.84
8253;BME280;61313;48.396;10.008;2023-09-19T02:31:11;95981.13;;;17.41;75.65
8253;BME280;61313;48.396;10.008;2023-09-19T02:33:37;95980.59;;;17.36;76.33
8253;BME280;61313;48.396;10.008;2023-09-19T02:36:02;95980.88;;;17.44;75.78
8253;BME280;61313;48.396;10.008;2023-09-19T02:38:31;95987.25;;;17.42;75.83
8253;BME280;61313;48.396;10.008;2023-09-19T02:40:56;95988.81;;;17.44;75.53
8253;BME280;61313;48.396;10.008;2023-09-19T02:43:22;95990.38;;;17.47;75.45
8253;BME280;61313;48.396;10.008;2023-09-19T02:45:49;95988.00;;;17.44;75.64
8253;BME280;61313;48.396;10.008;2023-09-19T02:48:20;95989.94;;;17.53;75.20
8253;BME280;61313;48.396;10.008;2023-09-19T02:50:48;95993.03;;;17.47;75.36
8253;BME280;61313;48.396;10.008;2023-09-19T02:53:14;96002.56;;;17.27;76.49
8253;BME280;61313;48.396;10.008;2023-09-19T02:55:40;96004.72;;;17.33;76.02
8253;BME280;61313;48.396;10.008;2023-09-19T02:58:05;95993.50;;;17.41;75.59
8253;BME280;61313;48.396;10.008;2023-09-19T03:00:33;96006.41;;;17.45;75.29
8253;BME280;61313;48.396;10.008;2023-09-19T03:03:00;96005.47;;;17.46;75.36
8253;BME280;61313;48.396;10.008;2023-09-19T03:05:27;96010.28;;;17.41;75.70
8253;BME280;61313;48.396;10.008;2023-09-19T03:07:56;96005.00;;;17.41;75.60
8253;BME280;61313;48.396;10.008;2023-09-19T03:10:21;96006.19;;;17.48;75.31
8253;BME280;61313;48.396;10.008;2023-09-19T03:12:47;96006.19;;;17.60;74.41
8253;BME280;61313;48.396;10.008;2023-09-19T03:15:14;96007.88;;;17.49;74.82
8253;BME280;61313;48.396;10.008;2023-09-19T03:17:46;96009.06;;;17.45;74.96
8253;BME280;61313;48.396;10.008;2023-09-19T03:20:17;96010.78;;;17.58;74.62
8253;BME280;61313;48.396;10.008;2023-09-19T03:22:43;96012.44;;;17.47;74.80
8253;BME280;61313;48.396;10.008;2023-09-19T03:25:09;96012.72;;;17.55;74.49
8253;BME280;61313;48.396;10.008;2023-09-19T03:27:37;96009.44;;;17.52;74.37
8253;BME280;61313;48.396;10.008;2023-09-19T03:30:04;96014.50;;;17.44;74.82
8253;BME280;61313;48.396;10.008;2023-09-19T03:32:36;96012.44;;;17.47;74.79
8253;BME280;61313;48.396;10.008;2023-09-19T03:35:03;96007.84;;;17.38;74.91
8253;BME280;61313;48.396;10.008;2023-09-19T03:37:31;96013.16;;;17.38;74.96
8253;BME280;61313;48.396;10.008;2023-09-19T03:39:58;96017.63;;;17.38;75.08
8253;BME280;61313;48.396;10.008;2023-09-19T03:42:24;96004.47;;;17.36;74.94
8253;BME280;61313;48.396;10.008;2023-09-19T03:44:52;96013.66;;;17.32;74.93
8253;BME280;61313;48.396;10.008;2023-09-19T03:47:18;96018.72;;;17.35;75.01
8253;BME280;61313;48.396;10.008;2023-09-19T03:49:44;96019.16;;;17.29;75.19
8253;BME280;61313;48.396;10.008;2023-09-19T03:52:09;96019.69;;;17.34;74.82
8253;BME280;61313;48.396;10.008;2023-09-19T03:54:35;96010.88;;;17.33;75.09
8253;BME280;61313;48.396;10.008;2023-09-19T03:57:00;96010.88;;;17.33;74.75
8253;BME280;61313;48.396;10.008;2023-09-19T03:59:25;96005.81;;;17.30;75.03
8253;BME280;61313;48.396;10.008;2023-09-19T04:01:52;96009.19;;;17.32;74.81
8253;BME280;61313;48.396;10.008;2023-09-19T04:04:21;96012.44;;;17.25;75.30
8253;BME280;61313;48.396;10.008;2023-09-19T04:06:46;96018.66;;;17.12;75.57
8253;BME280;61313;48.396;10.008;2023-09-19T04:09:11;96011.06;;;17.08;75.76
8253;BME280;61313;48.396;10.008;2023-09-19T04:11:38;96020.47;;;17.12;75.68
8253;BME280;61313;48.396;10.008;2023-09-19T04:14:03;96013.34;;;17.12;75.77
8253;BME280;61313;48.396;10.008;2023-09-19T04:16:29;96018.19;;;17.19;75.86
8253;BME280;61313;48.396;10.008;2023-09-19T04:18:54;96017.13;;;17.21;75.49
8253;BME280;61313;48.396;10.008;2023-09-19T04:21:20;96021.81;;;17.18;75.87
8253;BME280;61313;48.396;10.008;2023-09-19T04:23:45;96019.28;;;17.16;75.58
8253;BME280;61313;48.396;10.008;2023-09-19T04:26:11;96029.78;;;17.18;75.38
8253;BME280;61313;48.396;10.008;2023-09-19T04:28:37;96024.72;;;17.26;75.34
8253;BME280;61313;48.396;10.008;2023-09-19T04:31:03;96031.94;;;17.24;75.09
8253;BME280;61313;48.396;10.008;2023-09-19T04:33:29;96029.16;;;17.14;75.35
8253;BME280;61313;48.396;10.008;2023-09-19T04:35:55;96032.28;;;17.19;75.23
8253;BME280;61313;48.396;10.008;2023-09-19T04:38:21;96032.84;;;17.00;75.97
8253;BME280;61313;48.396;10.008;2023-09-19T04:40:46;96034.09;;;17.19;75.50
8253;BME280;61313;48.396;10.008;2023-09-19T04:43:12;96041.72;;;17.23;75.09
8253;BME280;61313;48.396;10.008;2023-09-19T04:45:38;96044.75;;;17.30;74.89
8253;BME280;61313;48.396;10.008;2023-09-19T04:48:05;96039.16;;;17.22;74.72
8253;BME280;61313;48.396;10.008;2023-09-19T04:50:32;96039.69;;;17.27;74.63
8253;BME280;61313;48.396;10.008;2023-09-19T04:52:59;96036.16;;;17.26;74.59
8253;BME280;61313;48.396;10.008;2023-09-19T04:55:26;96042.69;;;17.22;74.66
8253;BME280;61313;48.396;10.008;2023-09-19T04:57:52;96043.19;;;17.27;74.47
8253;BME280;61313;48.396;10.008;2023-09-19T05:00:21;96057.88;;;17.20;74.50
8253;BME280;61313;48.396;10.008;2023-09-19T05:02:54;96054.38;;;17.31;74.42
8253;BME280;61313;48.396;10.008;2023-09-19T05:05:21;96060.88;;;17.16;74.90
8253;BME280;61313;48.396;10.008;2023-09-19T05:07:48;96064.59;;;17.24;74.70
8253;BME280;61313;48.396;10.008;2023-09-19T05:10:14;96061.94;;;17.24;74.66
8253;BME280;61313;48.396;10.008;2023-09-19T05:12:40;96060.63;;;17.19;74.67
8253;BME280;61313;48.396;10.008;2023-09-19T05:15:07;96070.88;;;17.23;74.56
8253;BME280;61313;48.396;10.008;2023-09-19T05:17:34;96066.56;;;17.22;74.68
8253;BME280;61313;48.396;10.008;2023-09-19T05:20:01;96058.47;;;17.24;74.41
8253;BME280;61313;48.396;10.008;2023-09-19T05:22:40;96063.06;;;17.33;74.10
8253;BME280;61313;48.396;10.008;2023-09-19T05:25:06;96059.56;;;17.32;73.88
8253;BME280;61313;48.396;10.008;2023-09-19T05:27:32;96058.25;;;17.27;74.43
8253;BME280;61313;48.396;10.008;2023-09-19T05:29:59;96053.16;;;17.24;74.60
8253;BME280;61313;48.396;10.008;2023-09-19T05:32:24;96065.97;;;17.30;74.03
8253;BME280;61313;48.396;10.008;2023-09-19T05:34:49;96071.28;;;17.30;74.17
8253;BME280;61313;48.396;10.008;2023-09-19T05:37:18;96073.28;;;17.26;74.23
8253;BME280;61313;48.396;10.008;2023-09-19T05:39:43;96070.69;;;17.38;73.54
8253;BME280;61313;48.396;10.008;2023-09-19T05:42:08;96077.69;;;17.50;72.98
8253;BME280;61313;48.396;10.008;2023-09-19T05:44:34;96081.56;;;17.57;72.69
8253;BME280;61313;48.396;10.008;2023-09-19T05:47:02;96082.44;;;17.58;72.33
8253;BME280;61313;48.396;10.008;2023-09-19T05:49:28;96096.06;;;17.53;72.78
8253;BME280;61313;48.396;10.008;2023-09-19T05:51:53;96091.56;;;17.53;72.35
8253;BME280;61313;48.396;10.008;2023-09-19T05:54:20;96100.28;;;17.78;71.55
8253;BME280;61313;48.396;10.008;2023-09-19T05:56:45;96095.75;;;18.14;70.10
8253;BME280;61313;48.396;10.008;2023-09-19T05:59:12;96103.38;;;18.07;70.53
8253;BME280;61313;48.396;10.008;2023-09-19T06:01:44;96102.38;;;17.86;70.80
8253;BME280;61313;48.396;10.008;2023-09-19T06:04:09;96100.53;;;17.75;71.17
8253;BME280;61313;48.396;10.008;2023-09-19T06:06:35;96098.38;;;18.48;72.42
8253;BME280;61313;48.396;10.008;2023-09-19T06:09:04;96089.97;;;18.86;69.74
8253;BME280;61313;48.396;10.008;2023-09-19T06:11:31;96089.44;;;19.03;68.34
8253;BME280;61313;48.396;10.008;2023-09-19T06:13:59;96086.88;;;19.55;66.64
8253;BME280;61313;48.396;10.008;2023-09-19T06:16:25;96090.94;;;19.71;65.75
8253;BME280;61313;48.396;10.008;2023-09-19T06:18:51;96081.41;;;20.89;60.40
8253;BME280;61313;48.396;10.008;2023-09-19T06:21:18;96101.47;;;22.66;54.55
8253;BME280;61313;48.396;10.008;2023-09-19T06:23:43;96088.72;;;23.85;51.54
8253;BME280;61313;48.396;10.008;2023-09-19T06:26:08;96092.28;;;24.88;47.84
8253;BME280;61313;48.396;10.008;2023-09-19T06:28:34;96097.34;;;25.00;46.52
8253;BME280;61313;48.396;10.008;2023-09-19T06:31:02;96094.91;;;23.41;49.98
8253;BME280;61313;48.396;10.008;2023-09-19T06:33:28;96113.34;;;22.16;54.02
8253;BME280;61313;48.396;10.008;2023-09-19T06:35:56;96111.44;;;20.72;57.58
8253;BME280;61313;48.396;10.008;2023-09-19T06:38:25;96118.72;;;19.78;60.66
8253;BME280;61313;48.396;10.008;2023-09-19T06:40:50;96120.16;;;19.29;62.67
8253;BME280;61313;48.396;10.008;2023-09-19T06:43:16;96117.19;;;19.11;63.73
8253;BME280;61313;48.396;10.008;2023-09-19T06:45:41;96117.66;;;19.48;62.59
8253;BME280;61313;48.396;10.008;2023-09-19T06:48:07;96110.28;;;19.19;63.14
8253;BME280;61313;48.396;10.008;2023-09-19T06:50:35;96129.03;;;19.18;63.26
8253;BME280;61313;48.396;10.008;2023-09-19T06:53:01;96116.06;;;19.78;61.99
8253;BME280;61313;48.396;10.008;2023-09-19T06:55:27;96117.59;;;20.63;58.25
8253;BME280;61313;48.396;10.008;2023-09-19T06:57:55;96117.41;;;21.24;57.19
8253;BME280;61313;48.396;10.008;2023-09-19T07:00:21;96116.28;;;21.36;56.54
8253;BME280;61313;48.396;10.008;2023-09-19T07:03:03;96122.25;;;20.80;58.16
8253;BME280;61313;48.396;10.008;2023-09-19T07:05:30;96128.41;;;20.40;59.32
8253;BME280;61313;48.396;10.008;2023-09-19T07:07:59;96136.41;;;20.09;60.43
8253;BME280;61313;48.396;10.008;2023-09-19T07:10:26;96141.59;;;19.80;61.58
8253;BME280;61313;48.396;10.008;2023-09-19T07:13:05;96151.53;;;20.30;60.26
8253;BME280;61313;48.396;10.008;2023-09-19T07:15:36;96141.53;;;21.32;56.97
8253;BME280;61313;48.396;10.008;2023-09-19T07:18:05;96132.03;;;21.59;56.00
8253;BME280;61313;48.396;10.008;2023-09-19T07:20:31;96139.72;;;21.23;57.10
8253;BME280;61313;48.396;10.008;2023-09-19T07:22:58;96147.06;;;20.71;58.63
8253;BME280;61313;48.396;10.008;2023-09-19T07:25:25;96146.63;;;20.66;58.80
8253;BME280;61313;48.396;10.008;2023-09-19T07:27:51;96150.63;;;20.50;58.83
8253;BME280;61313;48.396;10.008;2023-09-19T07:30:16;96142.34;;;20.54;59.18
8253;BME280;61313;48.396;10.008;2023-09-19T07:32:42;96147.88;;;21.22;57.36
8253;BME280;61313;48.396;10.008;2023-09-19T07:35:07;96148.44;;;21.25;56.83
8253;BME280;61313;48.396;10.008;2023-09-19T07:37:34;96147.41;;;20.87;58.13
8253;BME280;61313;48.396;10.008;2023-09-19T07:40:00;96152.41;;;20.71;58.43
8253;BME280;61313;48.396;10.008;2023-09-19T07:42:26;96153.81;;;20.44;59.23
8253;BME280;61313;48.396;10.008;2023-09-19T07:44:52;96157.38;;;20.55;59.23
8253;BME280;61313;48.396;10.008;2023-09-19T07:47:19;96154.56;;;20.87;58.17
8253;BME280;61313;48.396;10.008;2023-09-19T07:49:49;96161.88;;;20.94;58.17
8253;BME280;61313;48.396;10.008;2023-09-19T07:52:15;96164.84;;;21.21;57.28
8253;BME280;61313;48.396;10.008;2023-09-19T07:54:41;96168.81;;;21.17;56.64
8253;BME280;61313;48.396;10.008;2023-09-19T07:57:06;96173.44;;;21.14;56.76
8253;BME280;61313;48.396;10.008;2023-09-19T07:59:32;96176.69;;;20.68;58.20
8253;BME280;61313;48.396;10.008;2023-09-19T08:01:58;96180.91;;;20.49;59.24
8253;BME280;61313;48.396;10.008;2023-09-19T08:04:23;96181.16;;;20.37;59.31
8253;BME280;61313;48.396;10.008;2023-09-19T08:06:50;96175.09;;;20.56;59.76
8253;BME280;61313;48.396;10.008;2023-09-19T08:09:17;96169.03;;;20.54;59.75
8253;BME280;61313;48.396;10.008;2023-09-19T08:11:46;96175.31;;;20.52;59.41
8253;BME280;61313;48.396;10.008;2023-09-19T08:14:12;96172.75;;;20.62;59.65
8253;BME280;61313;48.396;10.008;2023-09-19T08:16:39;96168.44;;;20.81;58.58
8253;BME280;61313;48.396;10.008;2023-09-19T08:19:05;96175.94;;;21.26;57.06
8253;BME280;61313;48.396;10.008;2023-09-19T08:21:31;96174.31;;;21.64;56.51
8253;BME280;61313;48.396;10.008;2023-09-19T08:23:57;96177.78;;;22.03;54.73
8253;BME280;61313;48.396;10.008;2023-09-19T08:26:23;96176.91;;;22.32;53.45
8253;BME280;61313;48.396;10.008;2023-09-19T08:28:49;96177.16;;;22.76;51.49
8253;BME280;61313;48.396;10.008;2023-09-19T08:31:16;96172.53;;;23.06;50.48
8253;BME280;61313;48.396;10.008;2023-09-19T08:33:42;96168.66;;;23.18;49.53
8253;BME280;61313;48.396;10.008;2023-09-19T08:36:09;96176.41;;;23.39;53.73
8253;BME280;61313;48.396;10.008;2023-09-19T08:38:35;96179.56;;;23.07;50.88
8253;BME280;61313;48.396;10.008;2023-09-19T08:41:05;96180.44;;;22.97;51.77
8253;BME280;61313;48.396;10.008;2023-09-19T08:43:31;96189.94;;;22.54;52.13
8253;BME280;61313;48.396;10.008;2023-09-19T08:46:19;96195.50;;;22.24;52.42
8253;BME280;61313;48.396;10.008;2023-09-19T08:48:51;96194.69;;;21.94;52.09
8253;BME280;61313;48.396;10.008;2023-09-19T08:51:41;96198.91;;;21.67;53.32
8253;BME280;61313;48.396;10.008;2023-09-19T08:54:29;96196.38;;;21.56;53.26
8253;BME280;61313;48.396;10.008;2023-09-19T08:57:00;96191.63;;;21.50;54.14
8253;BME280;61313;48.396;10.008;2023-09-19T08:59:33;96198.34;;;21.44;53.84
8253;BME280;61313;48.396;10.008;2023-09-19T09:02:00;96205.50;;;21.44;53.35
8253;BME280;61313;48.396;10.008;2023-09-19T09:04:26;96201.97;;;21.24;53.26
8253;BME280;61313;48.396;10.008;2023-09-19T09:06:53;96209.28;;;21.31;53.51
8253;BME280;61313;48.396;10.008;2023-09-19T09:09:20;96204.06;;;21.30;53.09
8253;BME280;61313;48.396;10.008;2023-09-19T09:11:48;96207.56;;;21.30;52.66
8253;BME280;61313;48.396;10.008;2023-09-19T09:14:13;96206.59;;;21.31;52.87
8253;BME280;61313;48.396;10.008;2023-09-19T09:16:39;96200.84;;;21.26;53.46
8253;BME280;61313;48.396;10.008;2023-09-19T09:19:05;96205.00;;;21.09;53.20
8253;BME280;61313;48.396;10.008;2023-09-19T09:21:30;96205.78;;;20.90;53.28
8253;BME280;61313;48.396;10.008;2023-09-19T09:24:25;96203.69;;;20.84;53.51
8253;BME280;61313;48.396;10.008;2023-09-19T09:26:51;96197.34;;;20.85;53.00
8253;BME280;61313;48.396;10.008;2023-09-19T09:29:41;96204.22;;;20.78;53.55
8253;BME280;61313;48.396;10.008;2023-09-19T09:32:37;96204.50;;;20.75;53.71
8253;BME280;61313;48.396;10.008;2023-09-19T09:35:07;96211.88;;;20.62;53.80
8253;BME280;61313;48.396;10.008;2023-09-19T09:37:35;96198.88;;;20.78;53.60
8253;BME280;61313;48.396;10.008;2023-09-19T09:40:04;96208.22;;;20.93;52.65
8253;BME280;61313;48.396;10.008;2023-09-19T09:42:41;96210.28;;;20.90;52.24
8253;BME280;61313;48.396;10.008;2023-09-19T09:47:47;96214.97;;;20.67;52.13
8253;BME280;61313;48.396;10.008;2023-09-19T09:50:46;96215.19;;;20.54;52.55
8253;BME280;61313;48.396;10.008;2023-09-19T09:53:28;96225.28;;;20.50;52.21
8253;BME280;61313;48.396;10.008;2023-09-19T09:56:05;96213.31;;;20.45;52.37
8253;BME280;61313;48.396;10.008;2023-09-19T09:58:35;96219.75;;;20.42;52.53
8253;BME280;61313;48.396;10.008;2023-09-19T10:01:02;96219.66;;;20.54;52.43
8253;BME280;61313;48.396;10.008;2023-09-19T10:03:38;96220.94;;;20.80;51.82
8253;BME280;61313;48.396;10.008;2023-09-19T10:06:11;96226.81;;;20.74;52.16
8253;BME280;61313;48.396;10.008;2023-09-19T10:09:07;96222.78;;;20.89;51.10
8253;BME280;61313;48.396;10.008;2023-09-19T10:11:41;96222.03;;;21.38;49.96
8253;BME280;61313;48.396;10.008;2023-09-19T10:14:09;96218.44;;;21.58;49.40
8253;BME280;61313;48.396;10.008;2023-09-19T10:16:40;96225.75;;;21.46;49.42
8253;BME280;61313;48.396;10.008;2023-09-19T10:19:07;96220.28;;;21.77;49.26
8253;BME280;61313;48.396;10.008;2023-09-19T10:21:36;96222.94;;;22.16;48.53
8253;BME280;61313;48.396;10.008;2023-09-19T10:24:03;96222.09;;;22.35;48.08
8253;BME280;61313;48.396;10.008;2023-09-19T10:26:34;96223.56;;;22.57;46.96
8253;BME280;61313;48.396;10.008;2023-09-19T10:29:01;96221.84;;;22.66;46.96
8253;BME280;61313;48.396;10.008;2023-09-19T10:31:29;96223.03;;;22.81;44.95
8253;BME280;61313;48.396;10.008;2023-09-19T10:34:02;96218.47;;;22.64;44.63
8253;BME280;61313;48.396;10.008;2023-09-19T10:36:32;96216.16;;;22.78;44.92
8253;BME280;61313;48.396;10.008;2023-09-19T10:39:02;96221.00;;;23.02;44.12
8253;BME280;61313;48.396;10.008;2023-09-19T10:41:32;96209.13;;;22.77;44.31
8253;BME280;61313;48.396;10.008;2023-09-19T10:44:03;96201.94;;;22.78;44.57
8253;BME280;61313;48.396;10.008;2023-09-19T10:46:31;96204.66;;;22.96;43.44
8253;BME280;61313;48.396;10.008;2023-09-19T10:48:59;96207.34;;;23.06;43.47
8253;BME280;61313;48.396;10.008;2023-09-19T10:51:29;96214.06;;;23.10;43.01
8253;BME280;61313;48.396;10.008;2023-09-19T10:54:04;96210.34;;;23.38;45.51
8253;BME280;61313;48.396;10.008;2023-09-19T10:56:39;96215.50;;;23.32;43.66
8253;BME280;61313;48.396;10.008;2023-09-19T10:59:11;96199.09;;;23.53;43.55
8253;BME280;61313;48.396;10.008;2023-09-19T11:01:56;96202.72;;;23.61;42.28
8253;BME280;61313;48.396;10.008;2023-09-19T11:04:32;96193.63;;;23.72;41.00
8253;BME280;61313;48.396;10.008;2023-09-19T11:07:08;96217.72;;;23.72;42.33
8253;BME280;61313;48.396;10.008;2023-09-19T11:10:02;96204.88;;;23.58;42.64
8253;BME280;61313;48.396;10.008;2023-09-19T11:15:06;96193.88;;;23.79;39.46
8253;BME280;61313;48.396;10.008;2023-09-19T11:17:40;96199.91;;;23.81;41.65
8253;BME280;61313;48.396;10.008;2023-09-19T11:25:46;96199.59;;;23.66;39.96
8253;BME280;61313;48.396;10.008;2023-09-19T11:30:51;96193.13;;;23.23;40.93
8253;BME280;61313;48.396;10.008;2023-09-19T11:33:30;96188.47;;;22.97;41.33
8253;BME280;61313;48.396;10.008;2023-09-19T11:49:16;96172.69;;;23.04;42.85
8253;BME280;61313;48.396;10.008;2023-09-19T11:51:50;96165.16;;;23.17;40.42
8253;BME280;61313;48.396;10.008;2023-09-19T11:54:17;96175.69;;;23.19;40.64
8253;BME280;61313;48.396;10.008;2023-09-19T11:56:54;96161.16;;;23.57;40.42
8253;BME280;61313;48.396;10.008;2023-09-19T11:59:20;96165.31;;;23.70;39.49
8253;BME280;61313;48.396;10.008;2023-09-19T12:01:51;96163.69;;;23.59;38.98
8253;BME280;61313;48.396;10.008;2023-09-19T12:04:40;96167.44;;;23.30;38.24
8253;BME280;61313;48.396;10.008;2023-09-19T12:07:10;96165.06;;;23.27;38.58
8253;BME280;61313;48.396;10.008;2023-09-19T12:09:40;96160.78;;;23.52;37.98
8253;BME280;61313;48.396;10.008;2023-09-19T12:12:09;96164.63;;;23.67;38.10
8253;BME280;61313;48.396;10.008;2023-09-19T12:14:34;96154.81;;;23.58;39.43
8253;BME280;61313;48.396;10.008;2023-09-19T12:17:00;96157.50;;;23.58;38.38
8253;BME280;61313;48.396;10.008;2023-09-19T12:19:27;96155.19;;;23.45;40.19
8253;BME280;61313;48.396;10.008;2023-09-19T12:22:03;96160.63;;;23.36;39.85
8253;BME280;61313;48.396;10.008;2023-09-19T12:24:33;96166.84;;;23.36;41.42
8253;BME280;61313;48.396;10.008;2023-09-19T12:27:04;96149.06;;;23.35;39.58
8253;BME280;61313;48.396;10.008;2023-09-19T12:29:31;96148.53;;;23.50;39.28
8253;BME280;61313;48.396;10.008;2023-09-19T12:31:58;96137.91;;;23.58;39.32
8253;BME280;61313;48.396;10.008;2023-09-19T12:34:28;96141.66;;;23.65;39.96
8253;BME280;61313;48.396;10.008;2023-09-19T12:42:03;96131.63;;;23.67;39.63
8253;BME280;61313;48.396;10.008;2023-09-19T12:44:35;96128.13;;;23.49;38.93
8253;BME280;61313;48.396;10.008;2023-09-19T12:47:08;96126.78;;;23.53;39.42
8253;BME280;61313;48.396;10.008;2023-09-19T12:49:34;96137.38;;;23.54;39.69
8253;BME280;61313;48.396;10.008;2023-09-19T12:51:59;96137.22;;;23.56;38.38
8253;BME280;61313;48.396;10.008;2023-09-19T12:54:37;96141.75;;;23.55;40.32
8253;BME280;61313;48.396;10.008;2023-09-19T12:57:04;96137.69;;;23.51;39.97
8253;BME280;61313;48.396;10.008;2023-09-19T12:59:30;96129.88;;;23.58;39.52
8253;BME280;61313;48.396;10.008;2023-09-19T13:02:04;96127.75;;;23.43;38.06
8253;BME280;61313;48.396;10.008;2023-09-19T13:04:31;96131.16;;;23.54;41.22
8253;BME280;61313;48.396;10.008;2023-09-19T13:06:57;96136.66;;;23.52;37.89
8253;BME280;61313;48.396;10.008;2023-09-19T13:09:26;96141.41;;;23.58;37.94
8253;BME280;61313;48.396;10.008;2023-09-19T13:12:00;96129.94;;;23.66;39.38
8253;BME280;61313;48.396;10.008;2023-09-19T13:14:28;96124.19;;;23.61;38.50
8253;BME280;61313;48.396;10.008;2023-09-19T13:17:08;96135.28;;;23.66;38.11
8253;BME280;61313;48.396;10.008;2023-09-19T13:19:49;96131.84;;;23.74;39.51
8253;BME280;61313;48.396;10.008;2023-09-19T13:22:43;96126.19;;;23.59;37.11
8253;BME280;61313;48.396;10.008;2023-09-19T13:25:15;96126.13;;;23.51;37.18
8253;BME280;61313;48.396;10.008;2023-09-19T13:27:48;96127.34;;;23.38;36.81
8253;BME280;61313;48.396;10.008;2023-09-19T13:30:16;96116.47;;;23.40;36.87
8253;BME280;61313;48.396;10.008;2023-09-19T13:32:42;96107.78;;;23.20;37.51
8253;BME280;61313;48.396;10.008;2023-09-19T13:35:08;96118.94;;;23.33;37.73
8253;BME280;61313;48.396;10.008;2023-09-19T13:37:41;96115.47;;;23.41;37.60
8253;BME280;61313;48.396;10.008;2023-09-19T13:40:11;96113.28;;;23.18;37.96
8253;BME280;61313;48.396;10.008;2023-09-19T13:42:38;96115.72;;;23.12;37.84
8253;BME280;61313;48.396;10.008;2023-09-19T13:45:04;96111.31;;;22.93;38.46
8253;BME280;61313;48.396;10.008;2023-09-19T13:47:32;96111.50;;;23.09;38.22
8253;BME280;61313;48.396;10.008;2023-09-19T13:49:58;96105.84;;;23.30;37.73
8253;BME280;61313;48.396;10.008;2023-09-19T13:52:25;96098.88;;;23.19;37.40
8253;BME280;61313;48.396;10.008;2023-09-19T13:54:53;96094.59;;;23.27;37.75
8253;BME280;61313;48.396;10.008;2023-09-19T13:57:30;96093.16;;;23.14;38.00
8253;BME280;61313;48.396;10.008;2023-09-19T13:59:56;96104.38;;;23.00;38.31